Time;durP1;ratioP1;P1;durP2;ratioP2;P2;SDS_P1;SDS_P2;PMS_P1;PMS_P2;Temp;Humidity;BMP_temperature;BMP_pressure;BME280_temperature;BME280_humidity;BME280_pressure;Samples;Min_cycle;Max_cycle;Signal;HPM_P1;HPM_P2
2021/05/04 00:02:19;;;;;;;;;;;7.30;74.20;;;;;;5076223;28;19920;-68
2021/05/04 00:04:45;;;;;;;;;;;7.30;74.80;;;;;;5074888;28;19920;-68
2021/05/04 00:07:11;;;;;;;;;;;7.40;74.30;;;;;;5074661;28;20015;-68
2021/05/04 00:09:36;;;;;;;;;;;7.60;73.60;;;;;;5073497;28;19921;-68
2021/05/04 00:12:02;;;;;;;;;;;7.50;74.50;;;;;;5076873;28;19943;-68
2021/05/04 00:14:28;;;;;;;;;;;7.40;74.50;;;;;;5078089;28;19924;-68
2021/05/04 00:16:54;;;;;;;;;;;7.40;74.50;;;;;;5081530;28;19916;-68
2021/05/04 00:19:20;;;;;;;;;;;7.10;76.60;;;;;;5075692;28;19924;-68
2021/05/04 00:21:46;;;;;;;;;;;6.90;76.30;;;;;;5076228;28;19920;-68
2021/05/04 00:24:12;;;;;;;;;;;6.90;76.40;;;;;;5076857;28;19919;-68
2021/05/04 00:26:37;;;;;;;;;;;6.80;78.20;;;;;;5075381;28;19974;-68
2021/05/04 00:29:03;;;;;;;;;;;7.00;76.70;;;;;;5077867;28;19921;-68
2021/05/04 00:31:29;;;;;;;;;;;7.50;74.90;;;;;;5075463;28;20518;-68
2021/05/04 00:33:55;;;;;;;;;;;7.80;74.80;;;;;;5077084;28;19977;-68
2021/05/04 00:36:21;;;;;;;;;;;7.60;75.40;;;;;;5075402;28;20212;-68
2021/05/04 00:38:46;;;;;;;;;;;7.50;75.30;;;;;;5074095;28;20296;-68
2021/05/04 00:41:12;;;;;;;;;;;7.40;76.00;;;;;;5075557;28;19958;-68
2021/05/04 00:43:38;;;;;;;;;;;8.00;73.50;;;;;;5075609;28;21471;-68
2021/05/04 00:46:04;;;;;;;;;;;8.00;73.90;;;;;;5074414;28;19927;-68
2021/05/04 00:48:31;;;;;;;;;;;7.80;74.80;;;;;;5077157;28;19991;-68
2021/05/04 00:50:58;;;;;;;;;;;7.80;74.70;;;;;;5075816;28;20301;-68
2021/05/04 00:53:24;;;;;;;;;;;7.60;75.10;;;;;;5074684;28;19939;-68
2021/05/04 00:55:50;;;;;;;;;;;7.30;77.20;;;;;;5075302;28;19955;-68
2021/05/04 00:58:16;;;;;;;;;;;7.20;77.00;;;;;;5074877;28;19924;-67
2021/05/04 01:00:42;;;;;;;;;;;7.20;77.40;;;;;;5074586;28;19946;-68
2021/05/04 01:03:09;;;;;;;;;;;7.40;76.60;;;;;;5074910;28;19965;-68
2021/05/04 01:05:35;;;;;;;;;;;7.60;76.60;;;;;;5076128;28;19916;-67
2021/05/04 01:08:00;;;;;;;;;;;8.20;74.70;;;;;;5072795;28;20205;-68
2021/05/04 01:10:26;;;;;;;;;;;8.30;74.30;;;;;;5075637;28;19995;-68
2021/05/04 01:12:53;;;;;;;;;;;8.50;73.50;;;;;;5075203;28;19942;-68
2021/05/04 01:15:19;;;;;;;;;;;8.60;72.70;;;;;;5076266;28;19928;-68
2021/05/04 01:17:45;;;;;;;;;;;8.60;72.60;;;;;;5075779;28;19926;-67
2021/05/04 01:20:11;;;;;;;;;;;8.50;72.90;;;;;;5073047;28;19973;-68
2021/05/04 01:22:36;;;;;;;;;;;8.70;72.40;;;;;;5075042;28;19920;-68
2021/05/04 01:25:04;;;;;;;;;;;8.80;71.80;;;;;;5074815;28;20252;-68
2021/05/04 01:27:30;;;;;;;;;;;8.80;71.80;;;;;;5072458;28;19955;-68
2021/05/04 01:29:55;;;;;;;;;;;8.80;71.40;;;;;;5074922;28;21460;-67
2021/05/04 01:32:21;;;;;;;;;;;8.90;71.30;;;;;;5075987;28;20003;-68
2021/05/04 01:34:47;;;;;;;;;;;9.00;71.10;;;;;;5075615;28;20219;-67
2021/05/04 01:37:13;;;;;;;;;;;8.90;71.50;;;;;;5077839;28;19977;-68
2021/05/04 01:39:42;;;;;;;;;;;8.90;71.30;;;;;;5076865;28;20290;-68
2021/05/04 01:42:08;;;;;;;;;;;8.90;71.20;;;;;;5075749;28;19970;-68
2021/05/04 01:44:34;;;;;;;;;;;9.00;70.50;;;;;;5075062;28;21592;-67
2021/05/04 01:46:59;;;;;;;;;;;9.10;70.20;;;;;;5073818;28;19924;-68
2021/05/04 01:49:25;;;;;;;;;;;8.90;70.60;;;;;;5075383;28;19920;-68
2021/05/04 01:51:54;;;;;;;;;;;8.80;70.60;;;;;;5089220;28;19973;-68
2021/05/04 01:54:20;;;;;;;;;;;8.90;70.80;;;;;;5073385;28;19916;-68
2021/05/04 01:56:46;;;;;;;;;;;8.90;70.20;;;;;;5076610;28;19927;-68
2021/05/04 01:59:12;;;;;;;;;;;9.00;69.60;;;;;;5079671;28;19993;-68
2021/05/04 02:01:38;;;;;;;;;;;9.00;69.80;;;;;;5077625;28;19960;-68
2021/05/04 02:04:03;;;;;;;;;;;9.20;68.50;;;;;;5077579;28;20430;-68
2021/05/04 02:06:29;;;;;;;;;;;9.40;68.10;;;;;;5077072;28;19928;-69
2021/05/04 02:08:55;;;;;;;;;;;9.40;67.90;;;;;;5080533;28;20853;-68
2021/05/04 02:11:21;;;;;;;;;;;9.30;67.90;;;;;;5079435;28;19912;-68
2021/05/04 02:13:47;;;;;;;;;;;9.20;68.80;;;;;;5078920;28;19951;-68
2021/05/04 02:16:13;;;;;;;;;;;9.30;68.20;;;;;;5078484;28;20058;-68
2021/05/04 02:18:38;;;;;;;;;;;9.30;67.60;;;;;;5078485;28;19916;-68
2021/05/04 02:21:04;;;;;;;;;;;9.30;67.60;;;;;;5081622;28;20490;-68
2021/05/04 02:23:31;;;;;;;;;;;9.30;67.70;;;;;;5076463;28;19920;-68
2021/05/04 02:25:57;;;;;;;;;;;9.30;67.50;;;;;;5076720;28;19923;-68
2021/05/04 02:28:23;;;;;;;;;;;9.30;67.50;;;;;;5079151;28;19976;-68
2021/05/04 02:30:49;;;;;;;;;;;9.20;67.80;;;;;;5076758;28;19915;-68
2021/05/04 02:33:16;;;;;;;;;;;9.10;68.00;;;;;;5078983;28;19923;-68
2021/05/04 02:35:42;;;;;;;;;;;9.20;67.80;;;;;;5078050;28;20272;-68
2021/05/04 02:38:08;;;;;;;;;;;9.20;67.50;;;;;;5077004;28;19956;-68
2021/05/04 02:40:33;;;;;;;;;;;9.40;67.00;;;;;;5077978;28;19925;-68
2021/05/04 02:42:59;;;;;;;;;;;9.30;67.20;;;;;;5078870;28;19932;-68
2021/05/04 02:45:26;;;;;;;;;;;9.30;67.20;;;;;;5079060;28;19912;-68
2021/05/04 02:47:52;;;;;;;;;;;9.10;67.80;;;;;;5078763;28;19920;-68
2021/05/04 02:50:18;;;;;;;;;;;9.20;67.50;;;;;;5079734;28;19912;-68
2021/05/04 02:52:43;;;;;;;;;;;9.30;67.30;;;;;;5076989;28;19935;-67
2021/05/04 02:55:09;;;;;;;;;;;9.40;67.00;;;;;;5078284;28;20024;-67
2021/05/04 02:57:35;;;;;;;;;;;9.50;66.80;;;;;;5077393;28;19961;-68
2021/05/04 03:00:01;;;;;;;;;;;9.50;66.70;;;;;;5077298;28;19920;-67
2021/05/04 03:02:27;;;;;;;;;;;9.60;66.60;;;;;;5074849;28;20293;-67
2021/05/04 03:04:52;;;;;;;;;;;9.50;66.70;;;;;;5075109;28;19920;-68
2021/05/04 03:07:18;;;;;;;;;;;9.50;67.00;;;;;;5077104;28;20007;-68
2021/05/04 03:09:44;;;;;;;;;;;9.50;67.00;;;;;;5075531;28;20023;-68
2021/05/04 03:12:10;;;;;;;;;;;9.60;66.60;;;;;;5078125;28;19912;-69
2021/05/04 03:14:35;;;;;;;;;;;9.60;67.00;;;;;;5078341;28;20346;-68
2021/05/04 03:17:01;;;;;;;;;;;9.70;66.90;;;;;;5077644;28;20336;-68
2021/05/04 03:19:27;;;;;;;;;;;9.70;66.60;;;;;;5075383;28;19924;-68
2021/05/04 03:21:53;;;;;;;;;;;9.70;66.80;;;;;;5076774;28;20035;-69
2021/05/04 03:24:19;;;;;;;;;;;9.60;67.20;;;;;;5075534;28;19916;-69
2021/05/04 03:26:45;;;;;;;;;;;9.60;67.30;;;;;;5093405;28;19919;-67
2021/05/04 03:29:13;;;;;;;;;;;9.60;67.20;;;;;;5076182;28;20038;-68
2021/05/04 03:31:39;;;;;;;;;;;9.70;67.10;;;;;;5076744;28;19912;-68
2021/05/04 03:34:04;;;;;;;;;;;9.70;67.30;;;;;;5077746;28;19927;-68
2021/05/04 03:36:30;;;;;;;;;;;9.60;67.50;;;;;;5074432;28;19919;-68
2021/05/04 03:38:56;;;;;;;;;;;9.80;67.10;;;;;;5077731;28;21532;-67
2021/05/04 03:41:22;;;;;;;;;;;9.90;66.90;;;;;;5076811;28;20008;-67
2021/05/04 03:43:48;;;;;;;;;;;9.90;66.80;;;;;;5075677;28;19912;-68
2021/05/04 03:46:14;;;;;;;;;;;9.90;66.90;;;;;;5077575;28;19923;-69
2021/05/04 03:48:40;;;;;;;;;;;9.80;67.40;;;;;;5080831;28;20005;-67
2021/05/04 03:51:07;;;;;;;;;;;9.80;67.20;;;;;;5075433;28;19942;-68
2021/05/04 03:53:33;;;;;;;;;;;9.70;67.50;;;;;;5075622;28;19920;-67
2021/05/04 03:55:59;;;;;;;;;;;9.70;67.60;;;;;;5074544;28;19924;-67
2021/05/04 03:58:25;;;;;;;;;;;9.70;67.90;;;;;;5076153;28;19927;-68
2021/05/04 04:00:50;;;;;;;;;;;9.80;67.50;;;;;;5076471;28;20007;-68
2021/05/04 04:03:16;;;;;;;;;;;9.80;67.80;;;;;;5075496;28;19931;-68
2021/05/04 04:05:42;;;;;;;;;;;9.80;67.80;;;;;;5076600;28;20968;-68
2021/05/04 04:08:08;;;;;;;;;;;9.90;67.60;;;;;;5073419;28;19962;-68
2021/05/04 04:10:36;;;;;;;;;;;9.90;67.60;;;;;;5075975;28;20316;-68
2021/05/04 04:13:01;;;;;;;;;;;9.90;67.60;;;;;;5075168;28;19920;-68
2021/05/04 04:15:27;;;;;;;;;;;9.90;67.80;;;;;;5073477;28;19920;-68
2021/05/04 04:17:53;;;;;;;;;;;9.90;67.90;;;;;;5074949;28;19916;-67
2021/05/04 04:20:19;;;;;;;;;;;10.00;67.70;;;;;;5077440;28;19920;-68
2021/05/04 04:22:44;;;;;;;;;;;10.10;67.20;;;;;;5075351;28;19912;-68
2021/05/04 04:25:10;;;;;;;;;;;10.10;67.20;;;;;;5077153;28;19920;-68
2021/05/04 04:27:36;;;;;;;;;;;10.20;67.20;;;;;;5074949;28;19966;-68
2021/05/04 04:30:02;;;;;;;;;;;10.20;67.10;;;;;;5075139;28;19960;-68
2021/05/04 04:32:29;;;;;;;;;;;10.20;67.20;;;;;;5075948;28;19912;-68
2021/05/04 04:34:55;;;;;;;;;;;10.20;67.50;;;;;;5074428;28;19976;-68
2021/05/04 04:37:21;;;;;;;;;;;10.30;67.40;;;;;;5072592;28;20275;-67
2021/05/04 04:39:47;;;;;;;;;;;10.40;67.10;;;;;;5074710;28;20373;-68
2021/05/04 04:42:13;;;;;;;;;;;10.40;67.30;;;;;;5076004;28;19947;-69
2021/05/04 04:44:38;;;;;;;;;;;10.40;67.30;;;;;;5075635;28;19947;-68
2021/05/04 04:47:07;;;;;;;;;;;10.40;67.20;;;;;;5075230;28;20354;-68
2021/05/04 04:49:33;;;;;;;;;;;10.50;67.10;;;;;;5077924;28;19934;-68
2021/05/04 04:51:59;;;;;;;;;;;10.50;67.10;;;;;;5072305;28;19920;-68
2021/05/04 04:54:25;;;;;;;;;;;10.60;66.60;;;;;;5075251;28;21526;-68
2021/05/04 04:56:51;;;;;;;;;;;10.70;66.50;;;;;;5076009;28;19959;-68
2021/05/04 04:59:16;;;;;;;;;;;10.60;67.00;;;;;;5075869;28;19916;-67
2021/05/04 05:01:42;;;;;;;;;;;10.60;67.00;;;;;;5075225;28;20293;-68
2021/05/04 05:04:08;;;;;;;;;;;10.70;66.50;;;;;;5073596;28;20216;-67
2021/05/04 05:06:34;;;;;;;;;;;10.80;66.40;;;;;;5076083;28;19921;-68
2021/05/04 05:09:02;;;;;;;;;;;10.80;66.20;;;;;;5073103;28;20028;-67
2021/05/04 05:11:28;;;;;;;;;;;10.70;66.50;;;;;;5072979;28;19947;-67
2021/05/04 05:13:53;;;;;;;;;;;10.80;66.50;;;;;;5074967;28;19955;-67
2021/05/04 05:16:21;;;;;;;;;;;10.80;66.40;;;;;;5076200;28;19931;-70
2021/05/04 05:18:47;;;;;;;;;;;10.90;66.30;;;;;;5082129;28;20002;-68
2021/05/04 05:21:15;;;;;;;;;;;10.90;66.40;;;;;;5076880;28;20319;-68
2021/05/04 05:23:41;;;;;;;;;;;10.90;65.80;;;;;;5079284;28;20002;-67
2021/05/04 05:26:07;;;;;;;;;;;11.00;65.80;;;;;;5077049;28;19945;-67
2021/05/04 05:28:33;;;;;;;;;;;11.10;65.40;;;;;;5074200;28;19917;-67
2021/05/04 05:30:59;;;;;;;;;;;11.10;65.50;;;;;;5082463;28;19995;-68
2021/05/04 05:33:25;;;;;;;;;;;11.10;65.20;;;;;;5081324;28;19931;-68
2021/05/04 05:35:50;;;;;;;;;;;11.20;65.00;;;;;;5077073;28;19912;-68
2021/05/04 05:38:18;;;;;;;;;;;11.30;64.90;;;;;;5076157;28;19916;-68
2021/05/04 05:40:43;;;;;;;;;;;11.30;64.40;;;;;;5079932;28;20267;-68
2021/05/04 05:43:09;;;;;;;;;;;11.40;64.50;;;;;;5079284;28;19912;-68
2021/05/04 05:45:35;;;;;;;;;;;11.40;64.70;;;;;;5081232;28;19920;-67
2021/05/04 05:48:01;;;;;;;;;;;11.40;64.40;;;;;;5080195;28;19946;-67
2021/05/04 05:50:26;;;;;;;;;;;11.40;64.40;;;;;;5086241;28;19912;-67
2021/05/04 05:52:52;;;;;;;;;;;11.40;64.10;;;;;;5090796;28;19928;-68
2021/05/04 05:55:17;;;;;;;;;;;11.50;64.20;;;;;;5081819;28;19958;-69
2021/05/04 05:57:43;;;;;;;;;;;11.50;64.00;;;;;;5081776;28;19964;-69
2021/05/04 06:00:09;;;;;;;;;;;11.50;64.20;;;;;;5095107;28;19912;-69
2021/05/04 06:02:35;;;;;;;;;;;11.50;64.00;;;;;;5077713;28;19912;-69
2021/05/04 06:05:00;;;;;;;;;;;11.50;64.30;;;;;;5075374;28;19919;-69
2021/05/04 06:07:26;;;;;;;;;;;11.60;64.10;;;;;;5083237;28;19912;-70
2021/05/04 06:09:52;;;;;;;;;;;11.50;64.20;;;;;;5091012;28;19912;-71
2021/05/04 06:12:18;;;;;;;;;;;11.60;63.80;;;;;;5095953;28;19915;-70
2021/05/04 06:14:43;;;;;;;;;;;11.60;63.70;;;;;;5088863;28;19946;-71
2021/05/04 06:17:09;;;;;;;;;;;11.60;64.00;;;;;;5097553;28;19942;-70
2021/05/04 06:19:37;;;;;;;;;;;11.70;63.50;;;;;;5106742;28;19923;-70
2021/05/04 06:22:05;;;;;;;;;;;11.70;63.50;;;;;;5093883;28;19912;-69
2021/05/04 06:24:31;;;;;;;;;;;11.70;63.60;;;;;;5101320;28;19912;-70
2021/05/04 06:26:56;;;;;;;;;;;11.80;63.30;;;;;;5114316;28;20002;-70
2021/05/04 06:29:22;;;;;;;;;;;11.80;64.00;;;;;;5109660;28;19944;-70
2021/05/04 06:31:56;;;;;;;;;;;11.80;63.60;;;;;;5095530;28;19911;-70
2021/05/04 06:34:22;;;;;;;;;;;11.90;62.60;;;;;;5098006;28;19922;-69
2021/05/04 06:36:48;;;;;;;;;;;11.90;62.70;;;;;;5111018;28;19924;-70
2021/05/04 06:39:13;;;;;;;;;;;12.00;63.00;;;;;;5102311;28;19981;-71
2021/05/04 06:41:39;;;;;;;;;;;12.10;62.20;;;;;;5095580;28;19916;-70
2021/05/04 06:44:04;;;;;;;;;;;12.10;62.30;;;;;;5103336;28;19919;-70
2021/05/04 06:46:31;;;;;;;;;;;12.20;62.30;;;;;;5114028;28;19912;-70
2021/05/04 06:48:57;;;;;;;;;;;12.20;62.40;;;;;;5115440;28;19912;-71
2021/05/04 06:51:23;;;;;;;;;;;12.20;62.20;;;;;;5109515;28;20323;-70
2021/05/04 06:53:49;;;;;;;;;;;12.10;61.70;;;;;;5112922;28;19956;-70
2021/05/04 06:56:14;;;;;;;;;;;12.20;61.40;;;;;;5098991;28;19916;-70
2021/05/04 06:58:40;;;;;;;;;;;12.20;61.90;;;;;;5098876;28;19923;-69
2021/05/04 07:01:05;;;;;;;;;;;12.30;61.90;;;;;;5118092;28;19912;-70
2021/05/04 07:03:31;;;;;;;;;;;12.40;61.80;;;;;;5115864;28;19912;-71
2021/05/04 07:05:56;;;;;;;;;;;12.30;60.90;;;;;;5117362;28;19912;-69
2021/05/04 07:08:22;;;;;;;;;;;12.40;60.70;;;;;;5105572;27;20338;-69
2021/05/04 07:10:47;;;;;;;;;;;12.40;61.40;;;;;;5119309;28;20334;-70
2021/05/04 07:13:15;;;;;;;;;;;12.60;61.10;;;;;;5116717;28;19912;-70
2021/05/04 07:15:47;;;;;;;;;;;12.70;60.70;;;;;;5100958;28;19923;-70
2021/05/04 07:18:12;;;;;;;;;;;12.80;59.70;;;;;;5127468;27;19916;-69
2021/05/04 07:20:38;;;;;;;;;;;12.80;60.10;;;;;;5134285;27;19919;-70
2021/05/04 07:23:08;;;;;;;;;;;12.90;60.40;;;;;;5102919;28;19919;-70
2021/05/04 07:25:34;;;;;;;;;;;12.90;60.00;;;;;;5085267;28;20308;-71
2021/05/04 07:28:00;;;;;;;;;;;12.90;59.70;;;;;;5112360;28;19912;-69
2021/05/04 07:30:26;;;;;;;;;;;12.90;59.70;;;;;;5117379;28;19919;-69
2021/05/04 07:32:51;;;;;;;;;;;12.90;60.10;;;;;;5113100;28;19920;-68
2021/05/04 07:35:17;;;;;;;;;;;12.80;59.60;;;;;;5099202;28;20304;-69
2021/05/04 07:37:43;;;;;;;;;;;12.90;59.70;;;;;;5113645;28;19911;-69
2021/05/04 07:40:09;;;;;;;;;;;13.00;60.20;;;;;;5116865;28;20297;-69
2021/05/04 07:42:35;;;;;;;;;;;13.20;59.60;;;;;;5118690;28;19912;-71
2021/05/04 07:45:03;;;;;;;;;;;13.10;59.90;;;;;;5116903;28;19920;-70
2021/05/04 07:47:29;;;;;;;;;;;13.20;59.60;;;;;;5105299;28;20360;-71
2021/05/04 07:49:56;;;;;;;;;;;13.20;59.80;;;;;;5103934;28;19996;-71
2021/05/04 07:52:22;;;;;;;;;;;13.20;59.80;;;;;;5111301;27;19957;-71
2021/05/04 07:54:48;;;;;;;;;;;13.40;60.10;;;;;;5117309;27;20056;-70
2021/05/04 07:57:13;;;;;;;;;;;13.40;59.70;;;;;;5117557;28;20320;-70
2021/05/04 07:59:39;;;;;;;;;;;13.30;60.80;;;;;;5103255;28;19916;-71
2021/05/04 08:02:04;;;;;;;;;;;13.30;60.70;;;;;;5114937;28;20213;-70
2021/05/04 08:04:30;;;;;;;;;;;13.20;61.00;;;;;;5117351;28;19919;-70
2021/05/04 08:06:56;;;;;;;;;;;13.30;61.10;;;;;;5100598;28;19916;-70
2021/05/04 08:09:25;;;;;;;;;;;13.40;61.30;;;;;;5081193;28;19919;-70
2021/05/04 08:11:50;;;;;;;;;;;13.20;61.30;;;;;;5100556;28;19972;-70
2021/05/04 08:14:17;;;;;;;;;;;13.40;61.40;;;;;;5117252;28;19911;-69
2021/05/04 08:16:43;;;;;;;;;;;13.80;61.20;;;;;;5095654;28;19924;-69
2021/05/04 08:19:08;;;;;;;;;;;14.30;60.30;;;;;;5094852;28;20493;-69
2021/05/04 08:21:35;;;;;;;;;;;14.50;60.10;;;;;;5097494;28;19912;-69
2021/05/04 08:24:01;;;;;;;;;;;14.90;60.40;;;;;;5097614;28;19919;-69
2021/05/04 08:26:27;;;;;;;;;;;15.30;59.40;;;;;;5097396;28;19912;-69
2021/05/04 08:28:53;;;;;;;;;;;15.20;59.20;;;;;;5107142;28;20216;-69
2021/05/04 08:31:19;;;;;;;;;;;15.20;59.20;;;;;;5117798;28;19912;-70
2021/05/04 08:33:44;;;;;;;;;;;15.20;59.60;;;;;;5116021;28;19918;-69
2021/05/04 08:36:10;;;;;;;;;;;15.40;59.40;;;;;;5116842;28;20006;-69
2021/05/04 08:38:35;;;;;;;;;;;15.60;59.50;;;;;;5109794;28;19961;-70
2021/05/04 08:41:03;;;;;;;;;;;15.70;59.90;;;;;;5117269;28;19937;-71
2021/05/04 08:43:32;;;;;;;;;;;15.60;59.70;;;;;;5116834;28;19959;-70
2021/05/04 08:45:58;;;;;;;;;;;15.70;59.30;;;;;;5099381;28;19912;-69
2021/05/04 08:48:24;;;;;;;;;;;15.10;60.10;;;;;;5100259;28;19924;-70
2021/05/04 08:50:54;;;;;;;;;;;14.80;61.20;;;;;;5099345;28;19912;-70
2021/05/04 08:53:20;;;;;;;;;;;14.80;60.30;;;;;;5109202;28;19920;-70
2021/05/04 08:55:46;;;;;;;;;;;15.00;60.60;;;;;;5097004;28;19926;-70
2021/05/04 08:58:11;;;;;;;;;;;14.90;60.90;;;;;;5101485;28;19963;-69
2021/05/04 09:00:37;;;;;;;;;;;14.90;60.60;;;;;;5098527;28;19947;-69
2021/05/04 09:03:15;;;;;;;;;;;14.70;61.30;;;;;;5100487;28;19991;-70
2021/05/04 09:05:44;;;;;;;;;;;14.60;61.40;;;;;;5103946;28;19912;-70
2021/05/04 09:08:30;;;;;;;;;;;14.60;61.10;;;;;;5108727;28;19923;-70
2021/05/04 09:10:57;;;;;;;;;;;14.20;61.70;;;;;;5116814;28;20277;-69
2021/05/04 09:13:36;;;;;;;;;;;14.40;61.70;;;;;;5116735;28;20316;-70
2021/05/04 09:21:14;;;;;;;;;;;14.40;61.10;;;;;;5096629;28;19908;-70
2021/05/04 09:23:41;;;;;;;;;;;15.00;61.00;;;;;;5107422;28;19947;-70
2021/05/04 09:26:20;;;;;;;;;;;15.40;59.40;;;;;;5114796;28;20301;-70
2021/05/04 09:28:49;;;;;;;;;;;15.90;59.20;;;;;;5116738;28;19933;-71
2021/05/04 09:31:21;;;;;;;;;;;16.10;58.60;;;;;;5098639;28;19912;-70
2021/05/04 09:33:47;;;;;;;;;;;16.60;58.30;;;;;;5097819;28;20223;-70
2021/05/04 09:36:32;;;;;;;;;;;17.00;57.40;;;;;;5110460;28;20026;-68
2021/05/04 09:38:58;;;;;;;;;;;16.70;58.10;;;;;;5113532;28;19916;-69
2021/05/04 09:41:31;;;;;;;;;;;16.70;58.10;;;;;;5114906;28;20668;-68
2021/05/04 09:43:56;;;;;;;;;;;16.50;57.30;;;;;;5114693;28;19911;-70
2021/05/04 09:46:41;;;;;;;;;;;16.10;58.10;;;;;;5097411;28;20295;-70
2021/05/04 09:49:23;;;;;;;;;;;16.10;58.50;;;;;;5104835;28;20003;-70
2021/05/04 09:51:50;;;;;;;;;;;16.40;58.70;;;;;;5099279;28;20276;-70
2021/05/04 09:54:31;;;;;;;;;;;16.60;57.90;;;;;;5103466;28;19915;-70
2021/05/04 09:56:56;;;;;;;;;;;16.20;59.00;;;;;;5077897;28;19912;-69
2021/05/04 09:59:25;;;;;;;;;;;16.00;59.80;;;;;;5079081;28;19934;-70
2021/05/04 10:01:52;;;;;;;;;;;15.90;59.30;;;;;;5077969;28;19916;-70
2021/05/04 10:04:18;;;;;;;;;;;15.90;59.60;;;;;;5096663;28;20061;-70
2021/05/04 10:06:44;;;;;;;;;;;15.70;59.50;;;;;;5110122;28;19912;-70
2021/05/04 10:09:10;;;;;;;;;;;15.70;59.50;;;;;;5107062;28;19918;-69
2021/05/04 10:11:36;;;;;;;;;;;16.20;59.10;;;;;;5095829;28;19915;-70
2021/05/04 10:14:01;;;;;;;;;;;16.30;58.90;;;;;;5100316;28;20364;-71
2021/05/04 10:16:30;;;;;;;;;;;16.40;57.90;;;;;;5099118;28;19928;-70
2021/05/04 10:18:57;;;;;;;;;;;16.20;58.30;;;;;;5115935;28;19916;-70
2021/05/04 10:21:23;;;;;;;;;;;16.40;58.40;;;;;;5088951;28;20209;-71
2021/05/04 10:23:49;;;;;;;;;;;16.60;58.30;;;;;;5114401;28;20411;-69
2021/05/04 10:26:17;;;;;;;;;;;16.60;58.90;;;;;;5117058;28;19912;-68
2021/05/04 10:28:52;;;;;;;;;;;16.40;59.20;;;;;;5100324;28;19931;-69
2021/05/04 10:31:19;;;;;;;;;;;16.70;58.30;;;;;;5109333;28;19952;-69
2021/05/04 10:33:45;;;;;;;;;;;16.20;58.10;;;;;;5101286;28;19923;-70
2021/05/04 10:36:29;;;;;;;;;;;16.10;58.80;;;;;;5100589;28;19954;-70
2021/05/04 10:38:56;;;;;;;;;;;16.10;58.80;;;;;;5080078;28;20003;-71
2021/05/04 10:41:22;;;;;;;;;;;16.10;59.00;;;;;;5102061;28;19919;-71
2021/05/04 10:44:01;;;;;;;;;;;15.80;58.70;;;;;;5119645;28;19915;-71
2021/05/04 10:46:40;;;;;;;;;;;15.80;59.40;;;;;;5099166;28;20257;-71
2021/05/04 10:49:08;;;;;;;;;;;15.70;59.00;;;;;;5090509;27;19916;-71
2021/05/04 10:51:45;;;;;;;;;;;15.50;59.40;;;;;;5110641;28;19995;-70
2021/05/04 10:54:11;;;;;;;;;;;15.50;59.00;;;;;;5099066;28;19954;-70
2021/05/04 10:56:40;;;;;;;;;;;15.30;59.70;;;;;;5100191;28;19912;-70
2021/05/04 10:59:08;;;;;;;;;;;15.90;59.90;;;;;;5098958;28;19912;-69
2021/05/04 11:01:35;;;;;;;;;;;16.10;58.20;;;;;;5100350;28;19955;-70
2021/05/04 11:04:01;;;;;;;;;;;15.70;59.40;;;;;;5118919;28;19911;-70
2021/05/04 11:06:26;;;;;;;;;;;15.70;58.50;;;;;;5117523;28;20197;-69
2021/05/04 11:08:52;;;;;;;;;;;15.70;59.10;;;;;;5105196;28;19931;-69
2021/05/04 11:11:25;;;;;;;;;;;15.70;59.50;;;;;;5117561;28;20006;-70
2021/05/04 11:13:52;;;;;;;;;;;15.60;60.40;;;;;;5101504;28;19965;-70
2021/05/04 11:16:36;;;;;;;;;;;15.60;59.90;;;;;;5093346;28;19998;-70
2021/05/04 11:19:03;;;;;;;;;;;15.90;60.70;;;;;;5098566;28;19916;-68
2021/05/04 11:21:36;;;;;;;;;;;16.10;59.90;;;;;;5081428;28;20369;-70
2021/05/04 11:24:02;;;;;;;;;;;16.00;59.60;;;;;;5118282;28;19969;-70
2021/05/04 11:26:44;;;;;;;;;;;15.80;59.50;;;;;;5117995;28;19911;-70
2021/05/04 11:29:10;;;;;;;;;;;16.00;59.70;;;;;;5118277;28;19954;-70
2021/05/04 11:31:42;;;;;;;;;;;16.40;59.00;;;;;;5107220;28;19960;-70
2021/05/04 11:34:26;;;;;;;;;;;16.50;58.70;;;;;;5080290;28;19922;-69
2021/05/04 11:36:51;;;;;;;;;;;16.10;59.20;;;;;;5106661;28;19913;-69
2021/05/04 11:39:17;;;;;;;;;;;16.00;59.30;;;;;;5098097;28;19916;-69
2021/05/04 11:42:03;;;;;;;;;;;15.70;60.20;;;;;;5109235;28;20254;-69
2021/05/04 11:44:33;;;;;;;;;;;15.30;61.30;;;;;;5117801;28;19912;-70
2021/05/04 11:47:17;;;;;;;;;;;15.50;61.80;;;;;;5104128;28;19907;-70
2021/05/04 11:49:43;;;;;;;;;;;16.00;61.10;;;;;;5097895;28;19912;-69
2021/05/04 11:52:09;;;;;;;;;;;15.90;61.20;;;;;;5097917;28;20597;-70
2021/05/04 11:54:35;;;;;;;;;;;16.00;60.60;;;;;;5101074;28;19995;-69
2021/05/04 11:57:02;;;;;;;;;;;15.70;61.30;;;;;;5098059;28;20343;-70
2021/05/04 11:59:28;;;;;;;;;;;15.60;61.90;;;;;;5079997;28;19923;-71
2021/05/04 12:01:54;;;;;;;;;;;15.70;61.70;;;;;;5127222;27;20319;-70
2021/05/04 12:04:20;;;;;;;;;;;15.60;61.80;;;;;;5097879;28;19916;-70
2021/05/04 12:06:46;;;;;;;;;;;15.40;62.90;;;;;;5096364;28;19995;-69
2021/05/04 12:09:12;;;;;;;;;;;15.20;62.90;;;;;;5108310;28;19999;-70
2021/05/04 12:11:38;;;;;;;;;;;15.00;63.90;;;;;;5094754;28;19953;-70
2021/05/04 12:14:04;;;;;;;;;;;15.00;63.20;;;;;;5116780;28;19911;-70
2021/05/04 12:16:29;;;;;;;;;;;15.00;63.90;;;;;;5117824;28;19945;-70
2021/05/04 12:18:55;;;;;;;;;;;15.10;63.80;;;;;;5117233;28;19923;-69
2021/05/04 12:21:21;;;;;;;;;;;14.90;64.30;;;;;;5110962;28;20351;-69
2021/05/04 12:23:46;;;;;;;;;;;14.70;64.90;;;;;;5096092;28;19912;-69
2021/05/04 12:26:13;;;;;;;;;;;14.60;65.10;;;;;;5098451;28;19919;-70
2021/05/04 12:28:39;;;;;;;;;;;14.60;66.00;;;;;;5098273;28;19911;-69
2021/05/04 12:31:05;;;;;;;;;;;14.40;66.30;;;;;;5115181;28;19995;-70
2021/05/04 12:33:30;;;;;;;;;;;14.20;67.50;;;;;;5116004;28;20004;-70
2021/05/04 12:38:32;;;;;;;;;;;14.60;65.90;;;;;;5096753;28;20003;-71
2021/05/04 12:41:02;;;;;;;;;;;14.70;65.40;;;;;;5096850;28;19912;-70
2021/05/04 12:43:31;;;;;;;;;;;14.80;65.00;;;;;;5098986;28;19908;-70
2021/05/04 12:46:07;;;;;;;;;;;15.10;63.40;;;;;;5117395;28;19912;-71
2021/05/04 12:48:33;;;;;;;;;;;15.40;61.90;;;;;;5115714;28;19954;-71
2021/05/04 12:51:01;;;;;;;;;;;15.30;61.10;;;;;;5116116;28;19922;-70
2021/05/04 12:53:36;;;;;;;;;;;15.10;61.60;;;;;;5110888;28;19922;-69
2021/05/04 12:56:05;;;;;;;;;;;15.20;62.00;;;;;;5106715;28;19912;-69
2021/05/04 12:58:30;;;;;;;;;;;15.80;60.90;;;;;;5114539;28;20283;-69
2021/05/04 13:01:10;;;;;;;;;;;16.10;60.10;;;;;;5105008;28;20015;-70
2021/05/04 13:03:50;;;;;;;;;;;16.40;59.40;;;;;;5100287;28;19912;-70
2021/05/04 13:06:21;;;;;;;;;;;16.50;57.70;;;;;;5096710;28;19967;-70
2021/05/04 13:08:50;;;;;;;;;;;15.90;59.50;;;;;;5099561;28;19935;-70
2021/05/04 13:11:18;;;;;;;;;;;16.30;58.20;;;;;;5113687;28;19955;-69
2021/05/04 13:14:03;;;;;;;;;;;16.10;57.80;;;;;;5115181;28;19919;-70
2021/05/04 13:32:42;;;;;;;;;;;15.40;59.50;;;;;;5096130;28;19912;-69
2021/05/04 13:35:13;;;;;;;;;;;15.20;60.00;;;;;;5096242;28;19908;-69
2021/05/04 13:47:57;;;;;;;;;;;15.00;62.20;;;;;;5111084;28;19934;-68
2021/05/04 13:50:23;;;;;;;;;;;15.30;62.30;;;;;;5115470;28;19931;-69
2021/05/04 13:52:49;;;;;;;;;;;15.80;61.40;;;;;;5110098;28;20220;-68
2021/05/04 13:55:16;;;;;;;;;;;15.90;59.80;;;;;;5105717;28;19912;-69
2021/05/04 13:57:48;;;;;;;;;;;16.00;60.20;;;;;;5116262;28;19948;-69
2021/05/04 14:00:17;;;;;;;;;;;16.30;59.90;;;;;;5114437;28;20335;-69
2021/05/04 14:08:59;;;;;;;;;;;15.90;59.70;;;;;;5070465;28;20017;-69
2021/05/04 14:27:08;;;;;;;;;;;16.20;60.40;;;;;;5106424;28;19927;-69
2021/05/04 14:29:33;;;;;;;;;;;15.80;61.00;;;;;;5095592;28;20004;-68
2021/05/04 14:31:59;;;;;;;;;;;15.60;62.50;;;;;;5109013;28;19951;-69
2021/05/04 14:34:26;;;;;;;;;;;15.60;62.20;;;;;;5090497;28;20328;-69
2021/05/04 14:37:02;;;;;;;;;;;15.50;63.20;;;;;;5094517;28;19915;-68
2021/05/04 15:03:11;;;;;;;;;;;13.80;68.40;;;;;;5100195;28;19920;-70
2021/05/04 15:05:37;;;;;;;;;;;13.70;68.50;;;;;;5098111;28;19998;-70
2021/05/04 15:08:03;;;;;;;;;;;13.70;69.10;;;;;;5099942;28;19931;-69
2021/05/04 15:10:29;;;;;;;;;;;13.60;68.90;;;;;;5118404;28;20090;-68
2021/05/04 15:12:54;;;;;;;;;;;13.50;68.70;;;;;;5117602;28;20026;-69
2021/05/04 15:18:12;;;;;;;;;;;13.40;68.40;;;;;;5098490;28;19943;-69
2021/05/04 15:23:22;;;;;;;;;;;12.90;70.00;;;;;;5109615;28;19919;-69
2021/05/04 15:25:51;;;;;;;;;;;13.00;70.80;;;;;;5118990;28;20220;-70
2021/05/04 15:28:19;;;;;;;;;;;13.00;70.50;;;;;;5117960;28;20212;-70
2021/05/04 15:30:44;;;;;;;;;;;12.90;70.60;;;;;;5117895;28;20306;-70
2021/05/04 15:33:11;;;;;;;;;;;12.90;70.90;;;;;;5115981;28;19947;-70
2021/05/04 15:35:37;;;;;;;;;;;13.00;71.30;;;;;;5107067;28;20311;-70
2021/05/04 15:38:04;;;;;;;;;;;12.80;71.70;;;;;;5116540;28;19922;-69
2021/05/04 15:40:30;;;;;;;;;;;12.60;72.40;;;;;;5117701;28;20200;-70
2021/05/04 15:42:56;;;;;;;;;;;12.60;73.40;;;;;;5088023;28;19912;-70
2021/05/04 15:45:22;;;;;;;;;;;12.80;73.40;;;;;;5102484;28;20306;-70
2021/05/04 15:47:55;;;;;;;;;;;12.80;73.90;;;;;;5098250;28;19908;-70